Time;durP1;ratioP1;P1;durP2;ratioP2;P2;SDS_P1;SDS_P2;PMS_P1;PMS_P2;Temp;Humidity;BMP_temperature;BMP_pressure;BME280_temperature;BME280_humidity;BME280_pressure;Samples;Min_cycle;Max_cycle;Signal;HPM_P1;HPM_P2
2023/05/03 00:00:28;;;;;;;;;;;;;;;8.74;37.97;97807.13;6296582;28;19920;-73
2023/05/03 00:03:30;;;;;;;;;;;;;;;8.69;37.90;97803.88;6298013;28;19920;-74
2023/05/03 00:06:31;;;;;;;;;;;;;;;8.64;37.72;97813.72;6297827;28;19970;-74
2023/05/03 00:09:37;;;;;;;;;;;;;;;8.58;38.64;97815.72;6298575;28;20312;-74
2023/05/03 00:12:39;;;;;;;;;;;;;;;8.56;38.66;97817.56;6298142;28;19920;-73
2023/05/03 00:15:44;;;;;;;;;;;;;;;8.53;38.24;97814.16;6298735;28;19920;-75
2023/05/03 00:18:45;;;;;;;;;;;;;;;8.51;38.07;97813.34;6298202;28;20053;-74
2023/05/03 00:21:46;;;;;;;;;;;;;;;8.49;38.10;97820.44;6296546;28;19927;-75
2023/05/03 00:24:50;;;;;;;;;;;;;;;8.46;38.35;97819.69;6298486;28;20007;-73
2023/05/03 00:27:53;;;;;;;;;;;;;;;8.42;38.30;97818.97;6298199;28;20013;-74
2023/05/03 00:30:54;;;;;;;;;;;;;;;8.37;38.26;97813.03;6297455;28;20390;-74
2023/05/03 00:33:58;;;;;;;;;;;;;;;8.35;38.27;97820.13;6298227;28;19920;-74
2023/05/03 00:36:59;;;;;;;;;;;;;;;8.33;38.51;97816.72;6296943;28;20309;-74
2023/05/03 00:40:01;;;;;;;;;;;;;;;8.30;38.41;97819.47;6297407;28;19977;-74
2023/05/03 00:43:02;;;;;;;;;;;;;;;8.29;38.85;97830.84;6296832;28;20321;-74
2023/05/03 00:46:05;;;;;;;;;;;;;;;8.30;38.57;97835.19;6297145;28;20407;-73
2023/05/03 00:49:07;;;;;;;;;;;;;;;8.32;38.68;97836.84;6297748;28;19920;-74
2023/05/03 00:52:10;;;;;;;;;;;;;;;8.34;38.86;97834.13;6296802;28;19920;-74
2023/05/03 00:55:14;;;;;;;;;;;;;;;8.39;38.16;97836.63;6296718;28;19920;-74
2023/05/03 00:58:17;;;;;;;;;;;;;;;8.42;38.59;97832.09;6297414;28;19920;-74
2023/05/03 01:01:19;;;;;;;;;;;;;;;8.46;38.62;97833.66;6297008;28;19973;-75
2023/05/03 01:04:22;;;;;;;;;;;;;;;8.49;38.38;97838.81;6297281;28;20401;-74
2023/05/03 01:07:26;;;;;;;;;;;;;;;8.53;38.12;97837.75;6297369;28;19920;-74
2023/05/03 01:10:47;;;;;;;;;;;;;;;8.58;38.05;97836.69;6296539;28;19920;-74
2023/05/03 01:13:54;;;;;;;;;;;;;;;8.61;38.39;97841.84;6295843;28;19920;-74
2023/05/03 01:17:04;;;;;;;;;;;;;;;8.67;38.22;97845.06;6296968;28;19927;-74
2023/05/03 01:20:12;;;;;;;;;;;;;;;8.76;38.07;97851.69;6295780;28;19921;-75
2023/05/03 01:23:20;;;;;;;;;;;;;;;8.83;38.08;97850.53;6296207;28;20298;-74
2023/05/03 01:26:22;;;;;;;;;;;;;;;8.89;38.17;97858.13;6295933;28;20298;-74
2023/05/03 01:29:24;;;;;;;;;;;;;;;8.95;38.33;97857.88;6295766;28;20069;-73
2023/05/03 01:32:31;;;;;;;;;;;;;;;9.02;38.14;97857.59;6296190;28;19920;-73
2023/05/03 01:35:35;;;;;;;;;;;;;;;9.12;38.86;97862.41;6295444;28;19926;-72
2023/05/03 01:38:39;;;;;;;;;;;;;;;9.20;38.88;97854.19;6295566;28;19920;-75
2023/05/03 01:41:46;;;;;;;;;;;;;;;9.30;37.85;97863.38;6296275;28;19920;-75
2023/05/03 01:44:49;;;;;;;;;;;;;;;9.34;37.77;97864.94;6296513;28;20302;-74
2023/05/03 01:47:50;;;;;;;;;;;;;;;9.41;37.83;97869.00;6295752;28;20399;-74
2023/05/03 01:50:52;;;;;;;;;;;;;;;9.48;37.46;97866.94;6295629;28;19925;-74
2023/05/03 01:53:53;;;;;;;;;;;;;;;9.60;37.08;97871.66;6295210;28;19920;-74
2023/05/03 01:56:58;;;;;;;;;;;;;;;9.71;36.99;97876.44;6295928;28;20019;-74
2023/05/03 01:59:59;;;;;;;;;;;;;;;9.86;36.51;97878.34;6295460;28;19920;-75
2023/05/03 02:03:00;;;;;;;;;;;;;;;10.07;36.85;97875.66;6294870;28;19927;-73
2023/05/03 02:06:03;;;;;;;;;;;;;;;10.14;36.76;97873.59;6295739;28;19920;-75
2023/05/03 02:09:04;;;;;;;;;;;;;;;10.25;36.89;97882.69;6295398;28;20389;-74
2023/05/03 02:12:06;;;;;;;;;;;;;;;10.37;36.39;97888.31;6276685;28;19931;-74
2023/05/03 02:15:08;;;;;;;;;;;;;;;10.52;35.86;97884.94;6294354;28;19920;-73
2023/05/03 02:18:09;;;;;;;;;;;;;;;10.62;35.79;97888.00;6294359;28;20027;-74
2023/05/03 02:21:15;;;;;;;;;;;;;;;10.72;35.74;97884.81;6295198;28;19920;-74
2023/05/03 02:24:16;;;;;;;;;;;;;;;10.85;35.50;97889.50;6294318;28;19920;-75
2023/05/03 02:27:22;;;;;;;;;;;;;;;10.97;35.22;97888.88;6295484;28;19920;-74
2023/05/03 02:30:25;;;;;;;;;;;;;;;11.08;35.27;97891.81;6276591;28;20275;-74
2023/05/03 02:33:31;;;;;;;;;;;;;;;11.22;34.98;97894.59;6295193;28;19920;-75
2023/05/03 02:36:40;;;;;;;;;;;;;;;11.40;34.80;97897.22;6295034;28;19920;-75
2023/05/03 02:39:43;;;;;;;;;;;;;;;11.46;34.83;97899.53;6295165;28;19932;-74
2023/05/03 02:42:46;;;;;;;;;;;;;;;11.59;34.56;97905.88;6295122;28;19950;-75
2023/05/03 02:45:52;;;;;;;;;;;;;;;11.67;34.69;97900.22;6277409;28;19920;-74
2023/05/03 02:48:55;;;;;;;;;;;;;;;11.74;34.39;97911.28;6294960;28;19920;-74
2023/05/03 02:51:59;;;;;;;;;;;;;;;11.83;34.49;97908.13;6294087;28;19920;-74
2023/05/03 02:55:00;;;;;;;;;;;;;;;11.95;34.29;97910.16;6294161;28;20015;-74
2023/05/03 02:58:03;;;;;;;;;;;;;;;12.08;34.05;97905.06;6294410;28;19921;-75
2023/05/03 03:01:08;;;;;;;;;;;;;;;12.15;34.05;97900.31;6294716;28;19947;-74
2023/05/03 03:04:09;;;;;;;;;;;;;;;12.28;33.56;97906.59;6293484;28;19942;-75
2023/05/03 03:07:10;;;;;;;;;;;;;;;12.38;33.66;97899.91;6293818;28;20319;-74
2023/05/03 03:10:12;;;;;;;;;;;;;;;12.50;33.39;97903.63;6294219;28;19920;-74
2023/05/03 03:13:16;;;;;;;;;;;;;;;12.61;33.38;97903.03;6294537;28;20416;-74
2023/05/03 03:16:20;;;;;;;;;;;;;;;12.72;33.37;97903.28;6294238;28;19920;-74
2023/05/03 03:19:23;;;;;;;;;;;;;;;12.82;33.20;97899.16;6293840;28;19921;-74
2023/05/03 03:22:27;;;;;;;;;;;;;;;12.97;33.26;97903.56;6293337;28;19927;-74
2023/05/03 03:25:31;;;;;;;;;;;;;;;13.15;32.98;97903.44;6294459;28;19920;-73
2023/05/03 03:28:32;;;;;;;;;;;;;;;13.31;32.34;97904.25;6294323;28;19916;-74
2023/05/03 03:31:35;;;;;;;;;;;;;;;13.41;31.82;97905.41;6293721;28;19927;-74
2023/05/03 03:34:41;;;;;;;;;;;;;;;13.54;31.88;97899.38;6295613;28;20325;-74
2023/05/03 03:37:45;;;;;;;;;;;;;;;13.68;31.97;97913.47;6298110;28;20019;-74
2023/05/03 03:40:46;;;;;;;;;;;;;;;13.80;31.77;97906.56;6298331;28;19920;-74
2023/05/03 03:43:47;;;;;;;;;;;;;;;13.85;31.76;97907.16;6298542;28;20409;-74
2023/05/03 03:46:48;;;;;;;;;;;;;;;13.98;31.62;97914.31;6297543;28;19986;-76
2023/05/03 03:49:52;;;;;;;;;;;;;;;14.13;31.36;97908.94;6298576;28;20297;-74
2023/05/03 03:52:53;;;;;;;;;;;;;;;14.52;30.27;97901.22;6298112;28;19920;-74
2023/05/03 03:55:56;;;;;;;;;;;;;;;14.55;30.06;97911.59;6298745;28;19921;-72
2023/05/03 03:58:57;;;;;;;;;;;;;;;14.61;30.20;97903.28;6298081;28;19923;-74
2023/05/03 04:02:01;;;;;;;;;;;;;;;14.65;30.24;97898.63;6298566;28;19920;-75
2023/05/03 04:05:05;;;;;;;;;;;;;;;14.71;30.33;97908.84;6297587;28;20399;-74
2023/05/03 04:08:06;;;;;;;;;;;;;;;14.90;29.99;97897.88;6298058;28;19920;-74
2023/05/03 04:11:13;;;;;;;;;;;;;;;15.12;29.87;97903.47;6297672;28;19927;-75
2023/05/03 04:14:16;;;;;;;;;;;;;;;15.31;29.48;97903.06;6298191;28;19920;-74
2023/05/03 04:17:20;;;;;;;;;;;;;;;15.45;29.24;97904.78;6297669;28;19962;-75
2023/05/03 04:20:22;;;;;;;;;;;;;;;15.79;28.06;97899.81;6279690;28;20307;-75
2023/05/03 04:23:23;;;;;;;;;;;;;;;15.82;27.80;97896.97;6297727;28;19943;-74
2023/05/03 04:26:26;;;;;;;;;;;;;;;15.94;27.41;97901.44;6279624;28;19928;-75
2023/05/03 04:29:27;;;;;;;;;;;;;;;15.94;27.63;97899.63;6297323;28;19920;-74
2023/05/03 04:32:36;;;;;;;;;;;;;;;16.05;27.60;97906.84;6297284;28;19942;-76
2023/05/03 04:35:37;;;;;;;;;;;;;;;16.29;27.37;97900.72;6297439;28;20546;-74
2023/05/03 04:38:41;;;;;;;;;;;;;;;16.59;26.30;97893.19;6297007;28;19921;-75
2023/05/03 04:41:45;;;;;;;;;;;;;;;16.75;26.32;97889.41;6297902;28;20330;-76
2023/05/03 04:44:46;;;;;;;;;;;;;;;17.77;24.93;97891.44;6296694;28;19920;-74
2023/05/03 04:47:50;;;;;;;;;;;;;;;21.66;22.05;97888.47;6297692;28;19920;-75
2023/05/03 04:50:53;;;;;;;;;;;;;;;26.04;18.67;97906.25;6297695;28;19920;-73
2023/05/03 04:53:57;;;;;;;;;;;;;;;29.16;16.41;97910.84;6296586;28;19927;-74
2023/05/03 04:57:02;;;;;;;;;;;;;;;32.02;15.32;97907.78;6297317;28;19920;-74
2023/05/03 05:00:06;;;;;;;;;;;;;;;34.29;14.24;97921.91;6296195;28;19920;-74
2023/05/03 05:03:10;;;;;;;;;;;;;;;36.79;12.96;97915.88;6279103;28;19958;-75
2023/05/03 05:06:11;;;;;;;;;;;;;;;38.48;12.56;97911.50;6296516;28;19921;-74
2023/05/03 05:09:22;;;;;;;;;;;;;;;40.20;10.95;97915.56;6297255;28;19920;-74
2023/05/03 05:12:26;;;;;;;;;;;;;;;41.31;10.24;97912.78;6296985;28;20381;-74
2023/05/03 05:15:30;;;;;;;;;;;;;;;42.08;10.46;97910.94;6278807;28;20488;-74
2023/05/03 05:18:33;;;;;;;;;;;;;;;43.53;10.28;97913.69;6297191;28;19920;-74
2023/05/03 05:21:37;;;;;;;;;;;;;;;45.39;8.59;97914.28;6296265;28;19927;-74
2023/05/03 05:24:41;;;;;;;;;;;;;;;46.41;7.22;97909.00;6296117;28;19920;-74
2023/05/03 05:27:46;;;;;;;;;;;;;;;44.97;5.38;97902.91;6296659;28;20297;-74
2023/05/03 05:30:47;;;;;;;;;;;;;;;43.24;5.68;97900.59;6296662;28;20385;-74
2023/05/03 05:33:49;;;;;;;;;;;;;;;42.62;6.84;97899.19;6296555;28;19928;-74
2023/05/03 05:36:51;;;;;;;;;;;;;;;43.64;7.23;97897.88;6295926;28;20325;-74
2023/05/03 05:39:55;;;;;;;;;;;;;;;45.32;5.74;97903.53;6278588;28;19920;-74
2023/05/03 05:42:56;;;;;;;;;;;;;;;46.61;5.29;97905.81;6296488;28;20058;-75
2023/05/03 05:46:02;;;;;;;;;;;;;;;46.63;4.23;97909.13;6279305;28;19924;-75
2023/05/03 05:49:06;;;;;;;;;;;;;;;45.59;3.69;97896.50;6297562;28;19920;-75
2023/05/03 05:52:07;;;;;;;;;;;;;;;44.53;3.59;97898.44;6295579;28;19977;-74
2023/05/03 05:55:13;;;;;;;;;;;;;;;43.18;4.17;97885.13;6296846;28;19942;-75
2023/05/03 05:58:19;;;;;;;;;;;;;;;41.97;4.54;97893.50;6296262;28;19924;-76
2023/05/03 06:01:22;;;;;;;;;;;;;;;42.01;3.66;97893.78;6296998;28;19920;-76
2023/05/03 06:04:26;;;;;;;;;;;;;;;41.44;4.33;97879.91;6296501;28;20371;-76
2023/05/03 06:07:29;;;;;;;;;;;;;;;41.30;4.39;97884.31;6296417;28;19927;-74
2023/05/03 06:10:33;;;;;;;;;;;;;;;41.82;4.20;97891.56;6295674;28;19983;-74
2023/05/03 06:13:37;;;;;;;;;;;;;;;42.63;4.02;97883.41;6296226;28;19920;-76
2023/05/03 06:16:40;;;;;;;;;;;;;;;42.62;4.08;97893.66;6277199;28;19920;-73
2023/05/03 06:19:47;;;;;;;;;;;;;;;43.28;3.34;97889.78;6295892;28;19920;-74
2023/05/03 06:22:53;;;;;;;;;;;;;;;43.22;3.57;97886.22;6295051;28;19920;-76
2023/05/03 06:25:59;;;;;;;;;;;;;;;43.64;3.16;97879.28;6295540;28;19920;-75
2023/05/03 06:29:02;;;;;;;;;;;;;;;43.57;3.41;97887.13;6294197;28;20408;-75
2023/05/03 06:32:07;;;;;;;;;;;;;;;43.63;3.13;97876.81;6295066;28;19920;-74
2023/05/03 06:35:14;;;;;;;;;;;;;;;44.09;3.50;97882.78;6294967;28;19920;-75
2023/05/03 06:38:16;;;;;;;;;;;;;;;44.79;2.92;97881.50;6293119;28;19962;-75
2023/05/03 06:41:28;;;;;;;;;;;;;;;44.51;3.36;97883.19;6295198;28;19927;-74
2023/05/03 06:44:29;;;;;;;;;;;;;;;44.75;2.99;97875.69;6294746;28;19923;-75
2023/05/03 06:47:30;;;;;;;;;;;;;;;44.80;3.20;97883.97;6295596;28;19920;-74
2023/05/03 06:50:34;;;;;;;;;;;;;;;45.39;2.89;97880.94;6295144;28;19963;-73
2023/05/03 06:53:36;;;;;;;;;;;;;;;46.07;2.78;97888.72;6294860;28;19927;-75
2023/05/03 06:56:39;;;;;;;;;;;;;;;45.52;3.13;97888.53;6294765;28;19951;-75
2023/05/03 06:59:41;;;;;;;;;;;;;;;45.96;2.65;97884.47;6294403;28;19920;-75
2023/05/03 07:02:43;;;;;;;;;;;;;;;45.33;3.02;97882.97;6293942;28;20305;-74
2023/05/03 07:05:46;;;;;;;;;;;;;;;45.00;3.18;97874.53;6295062;28;20005;-75
2023/05/03 07:08:51;;;;;;;;;;;;;;;45.17;2.96;97876.00;6294917;28;19920;-75
2023/05/03 07:11:52;;;;;;;;;;;;;;;46.31;2.63;97880.22;6298802;28;19943;-75
2023/05/03 07:14:55;;;;;;;;;;;;;;;45.71;2.99;97871.81;6299886;28;20352;-76
2023/05/03 07:17:59;;;;;;;;;;;;;;;45.82;2.88;97866.91;6299080;28;20382;-75
2023/05/03 07:21:04;;;;;;;;;;;;;;;46.70;3.08;97867.78;6281114;28;20306;-74
2023/05/03 07:24:11;;;;;;;;;;;;;;;47.24;2.81;97868.81;6300014;28;19920;-75
2023/05/03 07:27:17;;;;;;;;;;;;;;;47.43;2.65;97870.66;6299703;28;20408;-77
2023/05/03 07:30:24;;;;;;;;;;;;;;;46.95;2.72;97871.16;6299440;28;19927;-76
2023/05/03 07:33:25;;;;;;;;;;;;;;;46.65;2.80;97867.84;6298895;28;19920;-74
2023/05/03 07:36:27;;;;;;;;;;;;;;;46.54;2.83;97860.84;6299226;28;20439;-75
2023/05/03 07:39:29;;;;;;;;;;;;;;;46.65;3.01;97862.28;6299220;28;19951;-75
2023/05/03 07:42:32;;;;;;;;;;;;;;;46.78;2.70;97855.91;6298311;28;19927;-74
2023/05/03 07:45:38;;;;;;;;;;;;;;;46.78;3.08;97863.44;6299672;28;20010;-74
2023/05/03 07:48:44;;;;;;;;;;;;;;;47.17;2.51;97851.72;6299300;28;19926;-75
2023/05/03 07:51:48;;;;;;;;;;;;;;;47.60;2.40;97851.25;6299054;28;19920;-76
2023/05/03 07:54:51;;;;;;;;;;;;;;;48.82;2.10;97863.03;6281034;28;20254;-77
2023/05/03 07:57:58;;;;;;;;;;;;;;;48.27;2.25;97858.75;6298799;28;19920;-74
2023/05/03 08:00:59;;;;;;;;;;;;;;;46.32;2.58;97848.50;6297420;28;20286;-74
2023/05/03 08:04:02;;;;;;;;;;;;;;;45.38;2.92;97852.34;6297863;28;19928;-76
2023/05/03 08:07:04;;;;;;;;;;;;;;;45.78;2.87;97850.03;6298141;28;19941;-75
2023/05/03 08:10:05;;;;;;;;;;;;;;;45.06;2.81;97838.34;6297304;28;20374;-75
2023/05/03 08:13:09;;;;;;;;;;;;;;;44.48;3.28;97845.75;6279965;28;20146;-75
2023/05/03 08:16:12;;;;;;;;;;;;;;;44.72;2.92;97842.13;6279357;28;19965;-75
2023/05/03 08:19:14;;;;;;;;;;;;;;;43.65;3.14;97832.97;6297780;28;20468;-74
2023/05/03 08:22:17;;;;;;;;;;;;;;;43.63;3.46;97824.97;6297269;28;19920;-75
2023/05/03 08:25:27;;;;;;;;;;;;;;;44.59;2.91;97825.09;6298479;28;20023;-74
2023/05/03 08:28:29;;;;;;;;;;;;;;;44.09;3.55;97832.03;6297732;28;19920;-73
2023/05/03 08:31:31;;;;;;;;;;;;;;;44.71;3.00;97838.53;6297942;28;20386;-75
2023/05/03 08:34:35;;;;;;;;;;;;;;;44.39;3.10;97830.88;6298436;28;19924;-75
2023/05/03 08:37:41;;;;;;;;;;;;;;;44.40;3.07;97837.28;6279983;28;19916;-75
2023/05/03 08:40:47;;;;;;;;;;;;;;;43.99;3.46;97827.41;6297258;28;20479;-75
2023/05/03 08:43:53;;;;;;;;;;;;;;;44.15;3.60;97830.84;6298243;28;19920;-75
2023/05/03 08:46:58;;;;;;;;;;;;;;;43.77;3.38;97849.22;6297558;28;19916;-75
2023/05/03 08:50:05;;;;;;;;;;;;;;;43.11;3.92;97834.72;6297458;28;19920;-75
2023/05/03 08:53:09;;;;;;;;;;;;;;;42.64;3.76;97830.56;6297183;28;19920;-74
2023/05/03 08:56:11;;;;;;;;;;;;;;;42.03;4.30;97826.03;6296598;28;20507;-75
2023/05/03 08:59:16;;;;;;;;;;;;;;;42.16;4.16;97832.94;6297214;28;19925;-74
2023/05/03 09:02:20;;;;;;;;;;;;;;;41.50;4.44;97839.34;6296411;28;20388;-75
2023/05/03 09:05:21;;;;;;;;;;;;;;;40.46;4.70;97822.75;6296774;28;19943;-73
2023/05/03 09:08:24;;;;;;;;;;;;;;;40.68;4.86;97839.16;6296458;28;20094;-74
2023/05/03 09:11:28;;;;;;;;;;;;;;;40.90;4.86;97830.63;6296131;28;19927;-74
2023/05/03 09:14:29;;;;;;;;;;;;;;;40.64;5.01;97815.13;6296586;28;19921;-74
2023/05/03 09:17:35;;;;;;;;;;;;;;;40.56;5.17;97820.03;6296918;28;20026;-74
2023/05/03 09:20:38;;;;;;;;;;;;;;;40.93;5.20;97824.56;6296562;28;19920;-75
2023/05/03 09:23:40;;;;;;;;;;;;;;;40.23;5.50;97817.66;6295870;28;19920;-75
2023/05/03 09:26:49;;;;;;;;;;;;;;;39.41;5.93;97828.13;6296432;28;19927;-75
2023/05/03 09:29:55;;;;;;;;;;;;;;;38.10;6.36;97810.59;6279444;28;19920;-74
2023/05/03 09:32:58;;;;;;;;;;;;;;;38.52;6.56;97815.56;6295717;28;20405;-76
2023/05/03 09:36:03;;;;;;;;;;;;;;;38.46;6.23;97813.84;6296613;28;19920;-74
2023/05/03 09:39:15;;;;;;;;;;;;;;;38.32;6.20;97800.44;6296390;28;20381;-74
2023/05/03 09:42:17;;;;;;;;;;;;;;;38.17;6.10;97797.50;6278716;28;19920;-75
2023/05/03 09:45:27;;;;;;;;;;;;;;;37.34;6.63;97801.97;6295492;28;19920;-75
2023/05/03 09:48:28;;;;;;;;;;;;;;;37.05;6.74;97789.13;6295210;28;20297;-75
2023/05/03 09:51:33;;;;;;;;;;;;;;;36.77;6.70;97813.81;6295415;28;19920;-74
2023/05/03 09:54:34;;;;;;;;;;;;;;;35.80;7.74;97798.03;6296364;28;19931;-74
2023/05/03 09:57:41;;;;;;;;;;;;;;;35.03;7.95;97794.19;6295989;28;20106;-75
2023/05/03 10:00:45;;;;;;;;;;;;;;;35.09;8.19;97778.78;6295076;28;19920;-74
2023/05/03 10:03:49;;;;;;;;;;;;;;;35.31;8.04;97771.69;6295622;28;20413;-74
2023/05/03 10:06:58;;;;;;;;;;;;;;;35.35;8.04;97773.94;6295632;28;19920;-75
2023/05/03 10:10:01;;;;;;;;;;;;;;;35.64;7.84;97778.53;6295660;28;19920;-74
2023/05/03 10:13:03;;;;;;;;;;;;;;;36.55;7.46;97798.06;6294689;28;20414;-74
2023/05/03 10:16:11;;;;;;;;;;;;;;;36.28;7.97;97777.75;6295253;28;20308;-74
2023/05/03 10:19:15;;;;;;;;;;;;;;;36.00;7.79;97781.22;6294994;28;19920;-75
2023/05/03 10:22:17;;;;;;;;;;;;;;;35.51;8.13;97762.31;6277086;28;20033;-74
2023/05/03 10:25:18;;;;;;;;;;;;;;;34.92;8.23;97756.72;6294275;28;19927;-74
2023/05/03 10:28:21;;;;;;;;;;;;;;;34.72;8.48;97759.75;6294759;28;20102;-74
2023/05/03 10:31:41;;;;;;;;;;;;;;;34.17;8.85;97751.66;6295041;28;19920;-74
2023/05/03 10:34:42;;;;;;;;;;;;;;;34.36;8.78;97750.53;6295197;28;19920;-75
2023/05/03 10:37:47;;;;;;;;;;;;;;;34.89;8.34;97748.16;6294722;28;20401;-75
2023/05/03 10:40:50;;;;;;;;;;;;;;;34.55;8.55;97761.44;6294943;28;19920;-75
2023/05/03 10:43:56;;;;;;;;;;;;;;;34.15;8.58;97742.84;6294736;28;19920;-75
2023/05/03 10:47:08;;;;;;;;;;;;;;;34.05;8.97;97761.66;6294811;28;19927;-75
2023/05/03 10:50:15;;;;;;;;;;;;;;;33.35;9.21;97743.66;6276832;28;20074;-74
2023/05/03 10:53:38;;;;;;;;;;;;;;;33.49;9.39;97734.28;6294816;28;19920;-75
2023/05/03 10:56:52;;;;;;;;;;;;;;;33.48;9.24;97732.59;6293778;28;19920;-75
2023/05/03 10:59:56;;;;;;;;;;;;;;;33.25;9.58;97727.78;6294719;28;19920;-74
2023/05/03 11:03:06;;;;;;;;;;;;;;;33.01;10.01;97734.91;6294917;28;19924;-74
2023/05/03 11:06:31;;;;;;;;;;;;;;;33.41;9.39;97720.09;6294794;28;19962;-75
2023/05/03 11:09:33;;;;;;;;;;;;;;;33.40;9.66;97721.97;6294855;28;19927;-75
2023/05/03 11:12:34;;;;;;;;;;;;;;;32.76;10.12;97728.56;6294694;28;19920;-75
2023/05/03 11:15:36;;;;;;;;;;;;;;;32.32;10.45;97727.53;6294326;28;19921;-76
2023/05/03 11:18:42;;;;;;;;;;;;;;;31.80;10.26;97729.41;6294731;28;20267;-74
2023/05/03 11:21:43;;;;;;;;;;;;;;;32.21;10.39;97718.16;6294192;28;20586;-74
2023/05/03 11:24:47;;;;;;;;;;;;;;;31.84;10.81;97736.06;6294817;28;19926;-75
2023/05/03 11:27:51;;;;;;;;;;;;;;;31.08;10.71;97738.28;6294679;28;19916;-76
2023/05/03 11:30:54;;;;;;;;;;;;;;;30.47;11.20;97718.50;6294134;28;20753;-75
2023/05/03 11:33:57;;;;;;;;;;;;;;;30.76;11.08;97722.72;6294537;28;19921;-75
2023/05/03 11:37:03;;;;;;;;;;;;;;;30.71;11.45;97731.50;6294543;28;20006;-75
2023/05/03 11:40:05;;;;;;;;;;;;;;;30.26;11.47;97728.47;6293487;28;19920;-74
2023/05/03 11:43:09;;;;;;;;;;;;;;;30.22;11.77;97732.63;6294103;28;20127;-75
2023/05/03 11:46:12;;;;;;;;;;;;;;;29.60;11.96;97723.50;6293046;28;19920;-75
2023/05/03 11:49:19;;;;;;;;;;;;;;;29.53;12.12;97722.66;6293342;28;19967;-74
2023/05/03 11:52:23;;;;;;;;;;;;;;;29.37;12.32;97718.38;6294148;28;20305;-74
2023/05/03 11:55:29;;;;;;;;;;;;;;;29.38;12.27;97714.63;6295021;28;19920;-74
2023/05/03 11:58:31;;;;;;;;;;;;;;;29.02;12.41;97726.44;6298124;28;20282;-75
2023/05/03 12:01:32;;;;;;;;;;;;;;;28.76;12.55;97710.78;6297385;28;19928;-75
2023/05/03 12:04:40;;;;;;;;;;;;;;;28.81;12.76;97702.88;6298400;28;19920;-75
2023/05/03 12:07:40;;;;;;;;;;;;;;;28.58;12.74;97716.63;6297668;28;20065;-75
2023/05/03 12:10:44;;;;;;;;;;;;;;;28.61;12.73;97713.53;6298286;28;19920;-76
2023/05/03 12:13:57;;;;;;;;;;;;;;;28.58;12.86;97697.69;6297225;28;19927;-75
2023/05/03 12:17:00;;;;;;;;;;;;;;;28.53;12.75;97707.41;6297936;28;20008;-74
2023/05/03 12:20:15;;;;;;;;;;;;;;;28.56;12.80;97698.91;6298240;28;20508;-74
2023/05/03 12:23:19;;;;;;;;;;;;;;;28.50;12.91;97716.75;6298178;28;19928;-74
2023/05/03 12:26:21;;;;;;;;;;;;;;;28.26;12.98;97698.16;6297317;28;19920;-75
2023/05/03 12:29:23;;;;;;;;;;;;;;;28.25;12.89;97710.00;6297360;28;19920;-73
2023/05/03 12:32:26;;;;;;;;;;;;;;;28.18;13.07;97697.25;6297678;28;19920;-74
2023/05/03 12:35:27;;;;;;;;;;;;;;;28.01;13.00;97712.03;6296984;28;20293;-74
2023/05/03 12:38:29;;;;;;;;;;;;;;;27.68;13.48;97712.41;6296393;28;19920;-75
2023/05/03 12:41:31;;;;;;;;;;;;;;;27.56;13.51;97697.69;6296912;28;20382;-75
2023/05/03 12:44:32;;;;;;;;;;;;;;;27.64;13.61;97694.88;6297421;28;19943;-74
2023/05/03 12:47:35;;;;;;;;;;;;;;;27.29;13.79;97708.13;6296839;28;20367;-74
2023/05/03 12:50:41;;;;;;;;;;;;;;;27.53;13.81;97690.78;6297616;28;19920;-74
2023/05/03 12:53:45;;;;;;;;;;;;;;;27.24;13.66;97696.19;6296496;28;19927;-73
2023/05/03 12:56:49;;;;;;;;;;;;;;;26.82;14.16;97694.88;6297499;28;19927;-76
2023/05/03 12:59:55;;;;;;;;;;;;;;;26.49;14.37;97702.34;6297170;28;19916;-76
2023/05/03 13:02:58;;;;;;;;;;;;;;;26.22;14.69;97687.56;6296974;28;19920;-75
2023/05/03 13:05:59;;;;;;;;;;;;;;;25.81;14.68;97691.25;6296333;28;19928;-74
2023/05/03 13:09:04;;;;;;;;;;;;;;;25.88;14.75;97686.91;6295931;28;19916;-74
2023/05/03 13:12:11;;;;;;;;;;;;;;;25.51;15.16;97680.28;6279300;28;20026;-75
2023/05/03 13:15:15;;;;;;;;;;;;;;;25.56;15.05;97689.69;6296653;28;19920;-76
2023/05/03 13:18:18;;;;;;;;;;;;;;;25.31;15.20;97684.41;6296292;28;19920;-74
2023/05/03 13:21:22;;;;;;;;;;;;;;;25.04;15.55;97697.19;6295610;28;20290;-75
2023/05/03 13:24:23;;;;;;;;;;;;;;;24.69;15.77;97684.97;6295580;28;19920;-74
2023/05/03 13:27:26;;;;;;;;;;;;;;;24.57;15.68;97684.47;6277019;28;20421;-74
2023/05/03 13:30:30;;;;;;;;;;;;;;;24.84;15.86;97699.41;6296363;28;19920;-73
2023/05/03 13:33:40;;;;;;;;;;;;;;;24.78;15.89;97683.94;6296247;28;20405;-76
2023/05/03 13:36:46;;;;;;;;;;;;;;;24.83;15.78;97680.75;6296251;28;19920;-75
2023/05/03 13:39:49;;;;;;;;;;;;;;;25.04;15.77;97694.50;6296472;28;19920;-75
2023/05/03 13:42:55;;;;;;;;;;;;;;;24.96;15.63;97680.22;6296045;28;19924;-75
2023/05/03 13:46:00;;;;;;;;;;;;;;;24.52;15.83;97694.88;6295169;28;19920;-74
2023/05/03 13:49:04;;;;;;;;;;;;;;;24.34;15.78;97686.06;6295410;28;20010;-75
2023/05/03 13:52:05;;;;;;;;;;;;;;;24.19;15.96;97684.03;6294714;28;19920;-74
2023/05/03 13:55:08;;;;;;;;;;;;;;;23.90;16.17;97678.28;6295631;28;19920;-75
2023/05/03 13:58:11;;;;;;;;;;;;;;;24.05;15.95;97690.06;6295985;28;20290;-75
2023/05/03 14:01:15;;;;;;;;;;;;;;;23.91;15.75;97683.47;6296006;28;19920;-73
2023/05/03 14:04:17;;;;;;;;;;;;;;;23.82;15.74;97687.16;6294873;28;19942;-74
2023/05/03 14:07:21;;;;;;;;;;;;;;;23.60;15.93;97683.16;6295370;28;19973;-75
2023/05/03 14:10:24;;;;;;;;;;;;;;;23.61;15.96;97690.25;6295538;28;19924;-75
2023/05/03 14:13:30;;;;;;;;;;;;;;;23.40;16.08;97692.47;6295254;28;19920;-75
2023/05/03 14:16:34;;;;;;;;;;;;;;;23.33;15.96;97681.56;6295232;28;19920;-75
2023/05/03 14:19:35;;;;;;;;;;;;;;;23.22;15.97;97693.41;6293779;28;19927;-75
2023/05/03 14:22:41;;;;;;;;;;;;;;;23.13;16.11;97691.69;6295246;28;19920;-75
2023/05/03 14:25:45;;;;;;;;;;;;;;;22.90;16.33;97688.66;6295344;28;19921;-75
2023/05/03 14:28:51;;;;;;;;;;;;;;;22.93;16.28;97695.50;6295035;28;19923;-75
2023/05/03 14:31:52;;;;;;;;;;;;;;;22.84;16.23;97694.63;6294307;28;19920;-74
2023/05/03 14:34:56;;;;;;;;;;;;;;;22.64;16.34;97702.00;6295038;28;19920;-75
2023/05/03 14:37:59;;;;;;;;;;;;;;;22.46;16.37;97703.88;6295103;28;20011;-74
2023/05/03 14:41:03;;;;;;;;;;;;;;;22.38;16.44;97702.78;6294837;28;19927;-75
2023/05/03 14:44:05;;;;;;;;;;;;;;;22.14;16.72;97706.06;6294254;28;20073;-77
2023/05/03 14:47:07;;;;;;;;;;;;;;;22.12;16.70;97712.56;6294153;28;19920;-75
2023/05/03 14:50:08;;;;;;;;;;;;;;;21.83;16.72;97704.72;6294457;28;19920;-75
2023/05/03 14:53:11;;;;;;;;;;;;;;;21.78;17.06;97709.66;6276828;28;19921;-74
2023/05/03 14:56:15;;;;;;;;;;;;;;;21.53;17.25;97712.88;6294822;28;19920;-74
2023/05/03 14:59:21;;;;;;;;;;;;;;;21.58;17.38;97719.63;6294743;28;19924;-75
2023/05/03 15:02:24;;;;;;;;;;;;;;;21.20;17.42;97710.72;6294727;28;19920;-75
2023/05/03 15:05:26;;;;;;;;;;;;;;;21.15;17.74;97718.34;6293410;28;19927;-75
2023/05/03 15:08:30;;;;;;;;;;;;;;;20.82;17.83;97723.19;6276545;28;19923;-76
2023/05/03 15:11:31;;;;;;;;;;;;;;;20.83;18.06;97722.19;6293454;28;19920;-75
2023/05/03 15:14:35;;;;;;;;;;;;;;;20.55;18.18;97716.75;6293618;28;20351;-75
2023/05/03 15:17:41;;;;;;;;;;;;;;;20.40;18.48;97728.81;6294715;28;19921;-75
2023/05/03 15:20:42;;;;;;;;;;;;;;;20.18;18.63;97725.44;6293742;28;19926;-75
2023/05/03 15:23:43;;;;;;;;;;;;;;;19.82;18.67;97723.41;6293543;28;20424;-75
2023/05/03 15:26:45;;;;;;;;;;;;;;;19.87;18.82;97737.16;6294624;28;20301;-76
2023/05/03 15:29:47;;;;;;;;;;;;;;;19.81;19.05;97735.03;6294572;28;20416;-75
2023/05/03 15:32:51;;;;;;;;;;;;;;;19.38;19.47;97742.28;6299504;28;19920;-77
2023/05/03 15:35:57;;;;;;;;;;;;;;;19.40;19.60;97752.84;6299434;28;19924;-76
2023/05/03 15:38:58;;;;;;;;;;;;;;;19.33;19.65;97743.69;6298470;28;20420;-75
2023/05/03 15:41:59;;;;;;;;;;;;;;;18.97;19.75;97745.88;6298602;28;20375;-75
2023/05/03 15:45:02;;;;;;;;;;;;;;;18.60;20.31;97741.78;6298247;28;20001;-76
2023/05/03 15:48:05;;;;;;;;;;;;;;;18.56;20.17;97755.50;6280086;28;19928;-75
2023/05/03 15:51:08;;;;;;;;;;;;;;;18.69;20.35;97750.84;6299220;28;19924;-75
2023/05/03 15:54:09;;;;;;;;;;;;;;;18.57;20.42;97758.03;6299010;28;19970;-77
2023/05/03 15:57:13;;;;;;;;;;;;;;;18.24;20.50;97759.00;6298130;28;20275;-75
2023/05/03 16:00:16;;;;;;;;;;;;;;;18.23;20.66;97769.78;6297820;28;19947;-76
2023/05/03 16:03:20;;;;;;;;;;;;;;;18.19;20.77;97769.19;6297739;28;19927;-76